Time;durP1;ratioP1;P1;durP2;ratioP2;P2;SDS_P1;SDS_P2;PMS_P1;PMS_P2;Temp;Humidity;BMP_temperature;BMP_pressure;BME280_temperature;BME280_humidity;BME280_pressure;Samples;Min_cycle;Max_cycle;Signal;HPM_P1;HPM_P2
2021/04/29 00:00:25;;;;;;;3.53;3.23;;;;;;;12.39;54.61;99124.16;5071134;28;20178;-70
2021/04/29 00:02:51;;;;;;;3.13;2.93;;;;;;;12.37;54.69;99121.00;5070806;28;20199;-70
2021/04/29 00:05:20;;;;;;;2.80;2.60;;;;;;;12.20;55.23;99119.44;5071263;28;20174;-71
2021/04/29 00:07:46;;;;;;;4.10;3.20;;;;;;;12.20;55.63;99122.16;5071010;28;20188;-70
2021/04/29 00:10:18;;;;;;;3.20;3.00;;;;;;;12.29;56.00;99119.22;5070914;28;20622;-70
2021/04/29 00:12:44;;;;;;;2.73;2.53;;;;;;;11.98;55.50;99117.31;5070851;28;20232;-70
2021/04/29 00:15:11;;;;;;;4.97;3.27;;;;;;;12.00;56.24;99117.75;5070854;28;20182;-70
2021/04/29 00:17:37;;;;;;;3.40;3.10;;;;;;;12.03;56.80;99114.31;5070716;28;20220;-71
2021/04/29 00:20:08;;;;;;;3.43;3.13;;;;;;;12.16;60.32;99121.31;5070844;28;20848;-70
2021/04/29 00:22:34;;;;;;;3.33;3.03;;;;;;;12.06;62.79;99113.59;5069309;28;20206;-71
2021/04/29 00:24:59;;;;;;;3.83;3.53;;;;;;;11.96;64.96;99114.94;5070706;28;20674;-71
2021/04/29 00:27:25;;;;;;;3.33;3.07;;;;;;;12.02;66.28;99113.53;5070704;28;20189;-71
2021/04/29 00:29:50;;;;;;;3.57;3.13;;;;;;;11.83;68.67;99107.94;5070776;28;20269;-71
2021/04/29 00:32:15;;;;;;;4.07;3.77;;;;;;;11.74;69.35;99105.38;5070677;28;20206;-72
2021/04/29 00:34:41;;;;;;;3.43;3.13;;;;;;;11.79;69.45;99110.59;5070695;28;20249;-71
2021/04/29 00:37:06;;;;;;;3.67;3.33;;;;;;;11.68;71.46;99114.16;5070471;28;20186;-71
2021/04/29 00:39:31;;;;;;;4.03;3.77;;;;;;;11.57;72.62;99111.13;5070916;28;20224;-72
2021/04/29 00:41:57;;;;;;;4.60;4.20;;;;;;;11.48;74.07;99108.59;5070430;28;20641;-71
2021/04/29 00:44:22;;;;;;;3.43;3.13;;;;;;;11.31;75.56;99104.22;5070866;28;20210;-71
2021/04/29 00:46:48;;;;;;;3.50;3.30;;;;;;;11.32;76.64;99105.03;5070441;28;20175;-72
2021/04/29 00:49:15;;;;;;;3.53;3.33;;;;;;;11.08;78.41;99108.66;5070544;28;20186;-71
2021/04/29 00:51:41;;;;;;;4.10;3.80;;;;;;;11.10;80.10;99109.09;5070425;28;20612;-71
2021/04/29 00:54:06;;;;;;;4.00;3.70;;;;;;;11.02;80.42;99101.84;5070346;28;20181;-70
2021/04/29 00:56:31;;;;;;;3.33;3.13;;;;;;;10.97;81.77;99107.53;5070536;28;20692;-71
2021/04/29 00:58:57;;;;;;;3.40;3.10;;;;;;;10.84;81.89;99101.31;5070488;28;20202;-71
2021/04/29 01:01:23;;;;;;;3.27;3.07;;;;;;;10.79;83.18;99106.22;5070336;28;20201;-72
2021/04/29 01:03:49;;;;;;;4.03;3.73;;;;;;;10.73;84.53;99103.75;5070394;28;20653;-71
2021/04/29 01:06:19;;;;;;;3.60;3.40;;;;;;;10.80;84.73;99105.88;5070244;28;20175;-71
2021/04/29 01:08:50;;;;;;;3.63;3.33;;;;;;;10.78;85.14;99104.63;5070732;28;20227;-72
2021/04/29 01:11:20;;;;;;;3.43;3.13;;;;;;;10.89;84.57;99103.03;5070469;28;20171;-72
2021/04/29 01:13:53;;;;;;;3.90;3.60;;;;;;;10.85;84.80;99107.56;5070283;28;20167;-71
2021/04/29 01:16:21;;;;;;;4.03;3.73;;;;;;;10.76;86.09;99104.19;5070316;28;20175;-71
2021/04/29 01:18:48;;;;;;;3.47;3.17;;;;;;;10.80;86.23;99105.88;5070199;28;20175;-71
2021/04/29 01:21:16;;;;;;;4.00;3.60;;;;;;;10.69;86.48;99097.38;5070103;28;20210;-71
2021/04/29 01:23:44;;;;;;;3.63;3.33;;;;;;;10.79;86.66;99100.75;5069842;28;20676;-73
2021/04/29 01:26:13;;;;;;;3.93;3.63;;;;;;;10.79;87.17;99092.56;5068908;28;20186;-72
2021/04/29 01:28:39;;;;;;;3.07;2.87;;;;;;;10.82;87.43;99092.66;5070246;28;20269;-71
2021/04/29 01:31:04;;;;;;;3.27;3.03;;;;;;;10.80;87.84;99084.03;5070072;28;20266;-73
2021/04/29 01:33:30;;;;;;;3.50;3.30;;;;;;;10.80;88.02;99081.28;5071407;28;20215;-73
2021/04/29 01:35:55;;;;;;;4.20;3.90;;;;;;;10.89;87.85;99081.97;5073836;28;20786;-74
2021/04/29 01:38:21;;;;;;;6.27;3.33;;;;;;;10.93;88.12;99088.31;5073694;28;20174;-72
2021/04/29 01:40:47;;;;;;;3.70;3.40;;;;;;;10.71;89.55;99076.00;5073775;28;20224;-72
2021/04/29 01:43:12;;;;;;;4.03;3.73;;;;;;;10.72;90.14;99071.31;5073492;28;20216;-72
2021/04/29 01:45:41;;;;;;;4.23;3.90;;;;;;;10.70;90.34;99079.03;5073686;28;20242;-72
2021/04/29 01:48:08;;;;;;;4.17;3.77;;;;;;;10.78;90.20;99072.66;5073681;28;20186;-72
2021/04/29 01:50:34;;;;;;;4.27;3.97;;;;;;;10.61;90.20;99072.94;5073828;28;20202;-72
2021/04/29 01:53:00;;;;;;;4.83;4.43;;;;;;;10.76;89.94;99065.94;5073405;28;20171;-72
2021/04/29 01:55:25;;;;;;;4.60;4.20;;;;;;;10.88;89.82;99074.13;5073414;28;20681;-73
2021/04/29 01:57:52;;;;;;;4.07;3.77;;;;;;;10.89;89.71;99065.56;5073451;28;20559;-72
2021/04/29 02:00:19;;;;;;;4.93;4.43;;;;;;;10.81;90.50;99071.97;5071965;28;20181;-71
2021/04/29 02:02:44;;;;;;;5.03;4.63;;;;;;;10.95;89.82;99077.03;5073129;28;20263;-73
2021/04/29 02:05:11;;;;;;;4.60;4.30;;;;;;;10.98;89.54;99079.84;5073325;28;20183;-71
2021/04/29 02:07:36;;;;;;;4.50;4.20;;;;;;;10.99;89.46;99073.28;5073282;28;20248;-73
2021/04/29 02:10:03;;;;;;;4.80;4.40;;;;;;;11.05;89.33;99073.03;5073303;28;20665;-72
2021/04/29 02:12:32;;;;;;;4.60;4.30;;;;;;;11.09;88.82;99069.22;5073010;28;20589;-72
2021/04/29 02:15:03;;;;;;;4.50;4.13;;;;;;;10.96;88.86;99060.28;5073177;28;20190;-72
2021/04/29 02:18:10;;;;;;;4.47;4.17;;;;;;;10.97;89.01;99061.06;5072978;28;20197;-71
2021/04/29 02:20:39;;;;;;;5.07;4.63;;;;;;;10.91;88.92;99074.22;5062153;28;20190;-73
2021/04/29 02:23:20;;;;;;;4.03;3.70;;;;;;;10.79;89.58;99059.78;5072387;28;20210;-71
2021/04/29 02:25:47;;;;;;;3.53;3.33;;;;;;;10.57;90.13;99064.66;5052938;28;20171;-72
2021/04/29 02:28:14;;;;;;;4.50;4.20;;;;;;;10.50;90.60;99058.16;5052926;28;20262;-72
2021/04/29 02:30:40;;;;;;;4.83;4.43;;;;;;;10.43;91.31;99058.75;5052774;28;20631;-72
2021/04/29 02:33:06;;;;;;;5.17;4.77;;;;;;;10.44;92.16;99054.88;5052700;28;20210;-72
2021/04/29 02:35:32;;;;;;;5.27;4.87;;;;;;;10.46;92.21;99049.88;5052688;28;20171;-71
2021/04/29 02:37:57;;;;;;;5.23;4.83;;;;;;;10.46;92.30;99060.78;5052641;28;20179;-73
2021/04/29 02:40:26;;;;;;;5.83;5.23;;;;;;;10.51;92.59;99044.16;5052977;28;20526;-73
2021/04/29 02:42:52;;;;;;;5.37;4.93;;;;;;;10.58;93.18;99054.50;5052390;28;20206;-70
2021/04/29 02:45:18;;;;;;;5.23;4.83;;;;;;;10.69;93.00;99053.66;5051696;28;20179;-72
2021/04/29 02:47:48;;;;;;;5.47;4.93;;;;;;;10.70;92.87;99057.19;5052380;28;20678;-72
2021/04/29 02:50:16;;;;;;;5.50;5.00;;;;;;;10.14;93.92;99057.06;5052481;28;20243;-73
2021/04/29 02:52:44;;;;;;;5.03;4.63;;;;;;;9.99;95.44;99060.47;5052358;28;20233;-72
2021/04/29 02:55:10;;;;;;;6.33;5.80;;;;;;;9.84;95.75;99051.84;5052434;28;20186;-71
2021/04/29 02:57:36;;;;;;;6.17;5.67;;;;;;;9.88;96.68;99051.94;5052345;28;20543;-74
2021/04/29 03:00:05;;;;;;;6.40;5.90;;;;;;;9.89;96.84;99047.28;5052222;28;20182;-73
2021/04/29 03:02:30;;;;;;;5.80;5.40;;;;;;;10.05;96.84;99046.25;5052133;28;20227;-74
2021/04/29 03:04:56;;;;;;;5.70;5.27;;;;;;;10.34;96.14;99042.50;5052177;28;20203;-72
2021/04/29 03:07:21;;;;;;;5.53;5.03;;;;;;;10.56;94.92;99045.84;5052237;28;20656;-72
2021/04/29 03:09:47;;;;;;;5.10;4.70;;;;;;;10.65;94.73;99050.03;5052082;28;20183;-74
2021/04/29 03:12:12;;;;;;;6.03;5.60;;;;;;;10.79;93.96;99048.84;5052223;28;20183;-73
2021/04/29 03:14:37;;;;;;;5.23;4.80;;;;;;;10.68;92.87;99043.88;5051909;28;20182;-72
2021/04/29 03:17:02;;;;;;;5.30;4.80;;;;;;;10.51;93.17;99049.63;5051923;28;20176;-72
2021/04/29 03:19:28;;;;;;;5.47;5.07;;;;;;;10.42;93.65;99057.16;5051895;28;20207;-71
2021/04/29 03:21:53;;;;;;;5.20;4.80;;;;;;;10.36;94.07;99056.59;5051728;28;20199;-72
2021/04/29 03:24:18;;;;;;;4.37;4.07;;;;;;;10.28;94.53;99046.59;5051407;28;20631;-72
2021/04/29 03:26:45;;;;;;;5.73;5.33;;;;;;;10.24;94.57;99042.94;5051760;28;20199;-74
2021/04/29 03:29:10;;;;;;;6.93;6.23;;;;;;;10.20;95.02;99046.69;5051744;28;20175;-71
2021/04/29 03:31:36;;;;;;;5.70;5.20;;;;;;;10.03;95.44;99045.81;5052468;28;20175;-72
2021/04/29 03:34:01;;;;;;;5.53;5.13;;;;;;;9.96;96.14;99042.81;5054004;28;20175;-70
2021/04/29 03:36:26;;;;;;;6.17;5.73;;;;;;;9.95;97.00;99048.63;5052445;28;20182;-71
2021/04/29 03:38:53;;;;;;;6.43;5.93;;;;;;;9.92;97.39;99049.31;5051642;28;20252;-70
2021/04/29 03:41:18;;;;;;;5.47;5.07;;;;;;;9.80;97.71;99045.44;5051562;28;20175;-71
2021/04/29 03:43:44;;;;;;;6.23;5.73;;;;;;;9.82;97.92;99048.63;5051401;28;20237;-71
2021/04/29 03:46:09;;;;;;;5.60;5.20;;;;;;;9.85;98.58;99041.72;5051407;28;20250;-71
2021/04/29 03:48:34;;;;;;;5.60;5.17;;;;;;;9.90;98.64;99044.22;5051298;28;20186;-71
2021/04/29 03:50:59;;;;;;;6.83;6.33;;;;;;;9.94;98.93;99039.66;5066751;28;20599;-71
2021/04/29 03:53:25;;;;;;;6.70;6.20;;;;;;;9.97;98.97;99035.44;5070963;28;20198;-71
2021/04/29 03:55:51;;;;;;;6.93;6.33;;;;;;;10.03;98.54;99042.28;5070796;28;20267;-71
2021/04/29 03:58:16;;;;;;;7.97;6.47;;;;;;;10.08;98.41;99045.56;5071062;28;20179;-71
2021/04/29 04:00:41;;;;;;;5.97;5.57;;;;;;;10.14;98.37;99038.75;5070991;28;20185;-71
2021/04/29 04:03:07;;;;;;;6.50;6.00;;;;;;;10.09;98.49;99052.59;5070912;28;20209;-71
2021/04/29 04:05:32;;;;;;;6.53;6.03;;;;;;;10.03;97.84;99034.88;5070959;28;20288;-71
2021/04/29 04:07:58;;;;;;;5.90;5.50;;;;;;;10.07;98.07;99043.97;5070997;28;20198;-71
2021/04/29 04:10:23;;;;;;;6.90;5.33;;;;;;;10.11;98.19;99046.81;5070746;28;20202;-71
2021/04/29 04:12:48;;;;;;;7.00;6.40;;;;;;;10.10;97.80;99045.22;5070641;28;20200;-71
2021/04/29 04:15:14;;;;;;;8.17;7.57;;;;;;;10.06;97.90;99038.84;5070857;28;20201;-71
2021/04/29 04:17:39;;;;;;;7.30;6.70;;;;;;;10.01;98.26;99039.88;5070836;28;20299;-71
2021/04/29 04:20:05;;;;;;;7.87;7.27;;;;;;;10.00;98.17;99043.75;5070823;28;20174;-71
2021/04/29 04:22:30;;;;;;;8.07;7.43;;;;;;;10.03;97.90;99043.06;5070178;28;20194;-71
2021/04/29 04:24:56;;;;;;;8.47;7.73;;;;;;;10.11;97.85;99038.63;5070873;28;20202;-71
2021/04/29 04:27:21;;;;;;;8.57;7.97;;;;;;;10.19;98.37;99037.72;5070742;28;20159;-71
2021/04/29 04:29:46;;;;;;;7.97;7.27;;;;;;;10.24;98.03;99039.44;5070687;28;20174;-71
2021/04/29 04:32:12;;;;;;;8.03;7.33;;;;;;;10.26;98.44;99043.41;5070545;28;20646;-71
2021/04/29 04:34:37;;;;;;;7.63;7.00;;;;;;;10.35;98.63;99035.88;5070822;28;20173;-71
2021/04/29 04:37:02;;;;;;;6.83;6.33;;;;;;;10.43;98.36;99042.38;5070955;28;20178;-71
2021/04/29 04:39:28;;;;;;;5.30;4.90;;;;;;;10.48;98.21;99033.94;5070756;28;20177;-71
2021/04/29 04:41:53;;;;;;;5.73;5.33;;;;;;;10.56;97.52;99035.75;5070346;28;20217;-71
2021/04/29 04:44:19;;;;;;;6.30;5.80;;;;;;;10.59;96.95;99040.50;5070499;28;20249;-71
2021/04/29 04:46:44;;;;;;;7.30;6.70;;;;;;;10.26;96.93;99035.22;5070813;28;20240;-71
2021/04/29 04:49:09;;;;;;;7.90;7.20;;;;;;;10.03;97.75;99034.88;5070456;28;20227;-71
2021/04/29 04:51:35;;;;;;;7.80;7.23;;;;;;;10.24;97.56;99042.16;5070486;28;20182;-71
2021/04/29 04:54:02;;;;;;;7.13;6.53;;;;;;;10.33;97.26;99040.09;5070273;28;20174;-72
2021/04/29 04:56:28;;;;;;;6.90;6.40;;;;;;;10.38;97.32;99037.13;5070587;28;20174;-72
2021/04/29 04:58:54;;;;;;;7.33;6.80;;;;;;;10.44;97.36;99043.97;5070532;28;20182;-71
2021/04/29 05:01:20;;;;;;;7.57;6.97;;;;;;;10.59;96.73;99051.44;5070389;28;20179;-71
2021/04/29 05:03:45;;;;;;;8.03;7.33;;;;;;;10.69;95.93;99052.88;5070295;28;20676;-72
2021/04/29 05:06:10;;;;;;;8.10;7.30;;;;;;;10.71;95.63;99048.66;5068984;28;20178;-71
2021/04/29 05:08:36;;;;;;;7.33;6.73;;;;;;;10.75;95.27;99047.97;5071734;28;20186;-71
2021/04/29 05:11:01;;;;;;;8.23;7.53;;;;;;;10.78;94.86;99055.47;5074165;28;20235;-71
2021/04/29 05:13:27;;;;;;;8.77;8.07;;;;;;;10.76;94.54;99046.81;5074068;28;20661;-71
2021/04/29 05:15:52;;;;;;;9.47;8.67;;;;;;;10.70;94.32;99047.09;5074137;28;20232;-71
2021/04/29 05:18:17;;;;;;;7.60;7.03;;;;;;;10.69;94.36;99042.72;5074498;28;20178;-72
2021/04/29 05:20:44;;;;;;;8.17;7.57;;;;;;;10.68;94.28;99054.81;5074423;28;20692;-71
2021/04/29 05:23:09;;;;;;;8.60;7.80;;;;;;;10.71;94.49;99054.13;5073476;28;20210;-71
2021/04/29 05:25:35;;;;;;;9.83;6.97;;;;;;;10.61;94.68;99054.59;5073906;28;20544;-71
2021/04/29 05:28:02;;;;;;;8.83;8.03;;;;;;;10.10;96.22;99053.41;5074043;28;20179;-71
2021/04/29 05:30:28;;;;;;;8.67;7.97;;;;;;;9.88;98.04;99062.06;5073881;28;20236;-71
2021/04/29 05:32:54;;;;;;;10.37;9.43;;;;;;;9.61;100.00;99056.13;5072342;28;20217;-71
2021/04/29 05:35:20;;;;;;;10.80;9.90;;;;;;;9.27;100.00;99053.78;5073808;28;20202;-72
2021/04/29 05:37:45;;;;;;;9.97;8.97;;;;;;;9.15;100.00;99049.88;5073986;28;20170;-71
2021/04/29 05:40:13;;;;;;;9.30;8.50;;;;;;;9.08;100.00;99049.63;5073654;28;20228;-72
2021/04/29 05:42:42;;;;;;;7.63;6.97;;;;;;;9.15;100.00;99051.81;5073410;28;20658;-72
2021/04/29 05:45:08;;;;;;;10.00;9.10;;;;;;;9.16;100.00;99053.41;5073662;28;20178;-72
2021/04/29 05:47:34;;;;;;;10.97;7.77;;;;;;;9.11;100.00;99046.25;5073338;28;20262;-71
2021/04/29 05:49:59;;;;;;;9.37;8.57;;;;;;;9.10;100.00;99046.56;5073480;28;20285;-72
2021/04/29 05:52:25;;;;;;;9.53;8.63;;;;;;;9.10;100.00;99046.56;5073337;28;20174;-72
2021/04/29 05:54:50;;;;;;;11.07;9.93;;;;;;;8.94;100.00;99047.19;5073354;28;20202;-71
2021/04/29 05:57:15;;;;;;;9.10;8.30;;;;;;;9.03;100.00;99041.66;5073422;28;20674;-72
2021/04/29 05:59:41;;;;;;;10.33;9.53;;;;;;;9.09;100.00;99050.41;5073822;28;20171;-72
2021/04/29 06:02:06;;;;;;;9.63;8.73;;;;;;;9.03;100.00;99052.56;5071787;28;20202;-71
2021/04/29 06:04:32;;;;;;;9.90;9.00;;;;;;;9.10;100.00;99058.25;5073318;28;20439;-71
2021/04/29 06:06:57;;;;;;;10.53;9.63;;;;;;;9.00;100.00;99057.91;5073168;28;20262;-71
2021/04/29 06:09:22;;;;;;;10.40;9.50;;;;;;;9.01;100.00;99062.22;5073198;28;20206;-71
2021/04/29 06:11:48;;;;;;;10.63;9.63;;;;;;;8.87;100.00;99063.28;5073162;28;20531;-72
2021/04/29 06:14:14;;;;;;;9.17;8.33;;;;;;;8.88;100.00;99064.88;5071670;28;20538;-71
2021/04/29 06:16:40;;;;;;;9.37;8.57;;;;;;;8.75;100.00;99062.44;5072982;28;20170;-71
2021/04/29 06:19:05;;;;;;;8.30;7.60;;;;;;;8.77;100.00;99065.63;5073122;28;20174;-71
2021/04/29 06:21:31;;;;;;;9.47;8.70;;;;;;;8.67;100.00;99058.63;5071861;28;20265;-71
2021/04/29 06:23:57;;;;;;;10.33;9.33;;;;;;;8.73;100.00;99053.81;5072878;28;20171;-71
2021/04/29 06:26:22;;;;;;;10.20;9.30;;;;;;;8.81;100.00;99063.81;5072831;28;20274;-71
2021/04/29 06:28:48;;;;;;;9.47;8.67;;;;;;;8.94;100.00;99070.91;5072682;28;20174;-71
2021/04/29 06:31:13;;;;;;;9.27;8.47;;;;;;;8.97;100.00;99061.25;5072717;28;20229;-72
2021/04/29 06:33:38;;;;;;;9.30;8.60;;;;;;;8.97;100.00;99077.59;5072518;28;20178;-71
2021/04/29 06:36:04;;;;;;;11.33;9.97;;;;;;;8.89;100.00;99068.41;5072691;28;20257;-72
2021/04/29 06:38:30;;;;;;;10.53;9.53;;;;;;;8.85;100.00;99071.00;5072574;28;20171;-72
2021/04/29 06:40:56;;;;;;;10.10;9.20;;;;;;;8.81;100.00;99064.59;5072713;28;20202;-72
2021/04/29 06:43:21;;;;;;;10.27;9.37;;;;;;;8.77;100.00;99068.34;5072246;28;20605;-72
2021/04/29 06:45:46;;;;;;;8.53;7.83;;;;;;;8.73;100.00;99061.97;5072821;28;20178;-72
2021/04/29 06:48:12;;;;;;;10.40;9.43;;;;;;;8.48;100.00;99058.31;5072290;28;20723;-73
2021/04/29 06:50:38;;;;;;;9.67;8.87;;;;;;;8.42;100.00;99065.09;5072341;28;20649;-75
2021/04/29 06:53:05;;;;;;;9.37;8.47;;;;;;;8.37;100.00;99067.97;5072179;28;20167;-71
2021/04/29 06:55:31;;;;;;;9.70;8.83;;;;;;;8.41;100.00;99064.28;5072697;28;20198;-71
2021/04/29 06:57:56;;;;;;;10.57;9.57;;;;;;;8.35;100.00;99077.28;5072120;28;20650;-72
2021/04/29 07:00:23;;;;;;;9.70;8.87;;;;;;;8.25;100.00;99071.41;5072257;28;20221;-72
2021/04/29 07:02:49;;;;;;;9.57;8.87;;;;;;;8.19;100.00;99065.34;5071877;28;20238;-73
2021/04/29 07:05:15;;;;;;;12.20;10.90;;;;;;;8.26;100.00;99068.38;5072297;28;20213;-72
2021/04/29 07:07:40;;;;;;;9.93;8.87;;;;;;;8.45;100.00;99065.22;5072008;28;20175;-72
2021/04/29 07:10:06;;;;;;;10.07;9.17;;;;;;;8.61;100.00;99076.31;5071938;28;20520;-72
2021/04/29 07:12:32;;;;;;;10.97;10.00;;;;;;;8.62;100.00;99075.19;5071567;28;20229;-72
2021/04/29 07:14:57;;;;;;;9.07;8.27;;;;;;;8.64;100.00;99072.91;5071649;28;20187;-72
2021/04/29 07:17:22;;;;;;;14.83;8.17;;;;;;;8.69;100.00;99078.19;5070874;28;20192;-72
2021/04/29 07:19:48;;;;;;;10.00;9.20;;;;;;;8.42;100.00;99078.69;5072128;28;20178;-72
2021/04/29 07:22:13;;;;;;;11.07;10.07;;;;;;;8.16;100.00;99074.19;5071815;28;20206;-72
2021/04/29 07:24:38;;;;;;;9.70;8.90;;;;;;;8.10;100.00;99075.50;5071928;28;20178;-73
2021/04/29 07:27:05;;;;;;;9.13;8.37;;;;;;;8.44;100.00;99077.22;5071821;28;20186;-73
2021/04/29 07:29:32;;;;;;;11.77;10.57;;;;;;;8.60;100.00;99078.25;5071815;28;20223;-71
2021/04/29 07:31:57;;;;;;;10.00;9.17;;;;;;;8.60;100.00;99078.25;5071296;28;20178;-72
2021/04/29 07:34:22;;;;;;;9.97;8.93;;;;;;;8.60;100.00;99085.59;5071911;28;20178;-71
2021/04/29 07:36:48;;;;;;;9.60;8.60;;;;;;;8.68;100.00;99083.94;5071709;28;20189;-73
2021/04/29 07:39:13;;;;;;;8.93;8.13;;;;;;;8.42;100.00;99082.22;5071653;28;20202;-72
2021/04/29 07:41:38;;;;;;;9.80;9.00;;;;;;;8.29;100.00;99081.31;5070174;28;20181;-72
2021/04/29 07:44:04;;;;;;;9.97;9.17;;;;;;;8.33;100.00;99084.94;5071438;28;20179;-72
2021/04/29 07:46:31;;;;;;;11.23;10.13;;;;;;;8.39;100.00;99082.06;5071386;28;20174;-72
2021/04/29 07:48:56;;;;;;;10.33;9.47;;;;;;;8.48;100.00;99086.31;5070293;28;20578;-72
2021/04/29 07:51:22;;;;;;;9.87;8.97;;;;;;;8.61;100.00;99079.84;5071499;28;20183;-72
2021/04/29 07:53:47;;;;;;;8.80;8.00;;;;;;;8.66;100.00;99081.53;5071267;28;20179;-72
2021/04/29 07:56:14;;;;;;;10.97;10.07;;;;;;;8.63;100.00;99082.22;5069247;28;20182;-72
2021/04/29 07:58:40;;;;;;;10.70;9.80;;;;;;;8.67;100.00;99083.13;5071348;28;20181;-73
2021/04/29 08:01:05;;;;;;;10.70;9.63;;;;;;;8.55;100.00;99091.25;5071340;28;20186;-72
2021/04/29 08:03:30;;;;;;;10.93;8.73;;;;;;;8.52;100.00;99089.19;5071469;28;20211;-72
2021/04/29 08:05:56;;;;;;;10.33;9.53;;;;;;;8.54;100.00;99095.09;5069774;28;20182;-72
2021/04/29 08:08:21;;;;;;;11.73;10.27;;;;;;;8.43;100.00;99093.91;5071196;28;20174;-71
2021/04/29 08:10:47;;;;;;;11.03;10.13;;;;;;;8.39;100.00;99090.22;5071384;28;20527;-73
2021/04/29 08:13:12;;;;;;;9.67;8.87;;;;;;;8.57;100.00;99099.88;5071324;28;20179;-73
2021/04/29 08:15:39;;;;;;;10.23;9.20;;;;;;;8.87;100.00;99092.44;5071278;28;20650;-72
2021/04/29 08:18:04;;;;;;;10.60;9.70;;;;;;;8.79;100.00;99088.66;5071298;28;20656;-72
2021/04/29 08:20:30;;;;;;;10.90;9.80;;;;;;;8.86;100.00;99083.50;5071397;28;20257;-73
2021/04/29 08:22:55;;;;;;;11.83;10.83;;;;;;;8.69;100.00;99086.34;5071028;28;20209;-72
2021/04/29 08:25:20;;;;;;;11.40;10.20;;;;;;;8.54;100.00;99076.84;5071061;28;20183;-72
2021/04/29 08:27:46;;;;;;;10.97;10.07;;;;;;;8.50;100.00;99078.63;5070842;28;20742;-72
2021/04/29 08:30:13;;;;;;;12.67;10.87;;;;;;;8.63;100.00;99074.84;5070788;28;20641;-72
2021/04/29 08:32:38;;;;;;;12.57;11.43;;;;;;;8.61;100.00;99074.38;5070536;28;20558;-71
2021/04/29 08:35:04;;;;;;;11.80;10.70;;;;;;;8.55;100.00;99073.00;5070697;28;20214;-72
2021/04/29 08:37:30;;;;;;;12.67;11.33;;;;;;;8.62;100.00;99070.53;5070635;28;20626;-72
2021/04/29 08:39:55;;;;;;;12.63;11.53;;;;;;;8.70;100.00;99074.34;5070944;28;20181;-71
2021/04/29 08:42:20;;;;;;;10.53;9.73;;;;;;;8.78;100.00;99078.09;5070479;28;20209;-72
2021/04/29 08:44:46;;;;;;;12.50;11.43;;;;;;;8.88;100.00;99083.94;5074248;28;20178;-72
2021/04/29 08:47:11;;;;;;;12.67;11.47;;;;;;;8.81;100.00;99077.44;5075054;28;20223;-73
2021/04/29 08:49:40;;;;;;;14.10;12.73;;;;;;;9.18;100.00;99092.00;5074762;28;20179;-72
2021/04/29 08:52:06;;;;;;;12.30;11.30;;;;;;;9.42;100.00;99096.75;5072647;28;20310;-72
2021/04/29 08:54:35;;;;;;;13.73;12.53;;;;;;;9.79;100.00;99105.78;5073931;28;20179;-72
2021/04/29 08:57:01;;;;;;;13.20;12.00;;;;;;;9.87;100.00;99106.84;5066951;28;20589;-72
2021/04/29 08:59:26;;;;;;;13.93;12.63;;;;;;;9.94;100.00;99107.06;5070064;28;20217;-72
2021/04/29 09:01:51;;;;;;;13.40;12.13;;;;;;;10.03;100.00;99118.69;5073125;28;20206;-72
2021/04/29 09:04:19;;;;;;;13.57;12.30;;;;;;;10.21;100.00;99111.88;5071887;28;20255;-72
2021/04/29 09:06:45;;;;;;;13.37;12.17;;;;;;;10.31;100.00;99113.38;5071565;28;20185;-72
2021/04/29 09:09:13;;;;;;;13.37;12.23;;;;;;;10.45;100.00;99108.34;5073001;28;20172;-72
2021/04/29 09:11:51;;;;;;;13.70;12.47;;;;;;;10.47;100.00;99111.53;5073984;28;20162;-71
2021/04/29 09:14:29;;;;;;;11.73;10.77;;;;;;;10.54;99.63;99102.75;5073679;28;20197;-72
2021/04/29 09:16:55;;;;;;;11.50;10.60;;;;;;;10.66;99.25;99108.19;5073700;28;20198;-73
2021/04/29 09:19:22;;;;;;;11.77;10.67;;;;;;;10.70;99.23;99100.88;5073684;28;20201;-76
2021/04/29 09:21:47;;;;;;;10.67;9.77;;;;;;;10.57;99.03;99100.16;5073493;28;20175;-71
2021/04/29 09:24:13;;;;;;;10.67;9.83;;;;;;;10.78;99.16;99107.38;5073116;28;20265;-71
2021/04/29 09:26:39;;;;;;;11.43;10.43;;;;;;;10.89;99.11;99103.03;5072146;28;20182;-72
2021/04/29 09:29:16;;;;;;;11.80;10.80;;;;;;;10.96;98.62;99109.47;5073249;28;20189;-72
2021/04/29 09:31:44;;;;;;;13.33;12.13;;;;;;;11.10;98.63;99100.09;5073318;28;20658;-72
2021/04/29 09:34:10;;;;;;;12.63;11.53;;;;;;;11.18;97.82;99099.97;5072030;28;20185;-72
2021/04/29 09:36:38;;;;;;;14.87;13.23;;;;;;;10.77;97.74;99105.78;5073361;28;20383;-72
2021/04/29 09:39:08;;;;;;;12.17;11.03;;;;;;;10.89;98.97;99101.09;5072268;28;20303;-71
2021/04/29 09:41:47;;;;;;;11.87;10.87;;;;;;;11.23;98.99;99098.91;5065054;28;20206;-71
2021/04/29 09:44:16;;;;;;;11.17;10.23;;;;;;;11.34;97.12;99091.78;5067976;28;20191;-71
2021/04/29 09:46:47;;;;;;;10.80;9.80;;;;;;;11.66;97.10;99098.09;5073242;28;20232;-71
2021/04/29 09:49:32;;;;;;;9.37;8.53;;;;;;;11.56;96.00;99098.63;5067330;28;20195;-72
2021/04/29 09:51:59;;;;;;;8.97;8.20;;;;;;;11.57;93.68;99095.56;5059793;28;20200;-71
2021/04/29 09:54:28;;;;;;;7.83;7.17;;;;;;;11.55;92.89;99092.34;5070436;28;20857;-72
2021/04/29 09:57:05;;;;;;;8.20;7.60;;;;;;;11.69;93.46;99091.94;5069417;28;20194;-72
2021/04/29 09:59:33;;;;;;;7.93;7.23;;;;;;;11.77;92.05;99087.44;5071827;28;20257;-72
2021/04/29 10:01:59;;;;;;;7.47;6.77;;;;;;;11.67;92.20;99086.00;5069331;28;20211;-76
2021/04/29 10:04:27;;;;;;;7.53;6.93;;;;;;;11.49;91.81;99079.28;5071417;28;20654;-74
2021/04/29 10:06:59;;;;;;;8.00;7.30;;;;;;;11.55;93.14;99081.41;5072949;28;20634;-74
2021/04/29 10:09:28;;;;;;;8.33;7.63;;;;;;;11.68;93.93;99087.59;5073404;28;20171;-73
2021/04/29 10:11:57;;;;;;;7.70;7.10;;;;;;;11.80;94.62;99084.03;5073190;28;20179;-74
2021/04/29 10:14:25;;;;;;;8.10;7.50;;;;;;;11.93;96.35;99087.47;5072752;28;20687;-74
2021/04/29 10:16:50;;;;;;;8.17;7.50;;;;;;;12.30;96.17;99087.97;5072861;28;20676;-74
2021/04/29 10:19:16;;;;;;;9.50;8.80;;;;;;;12.53;96.91;99080.66;5072472;28;20215;-74
2021/04/29 10:21:41;;;;;;;9.00;8.30;;;;;;;12.75;95.21;99081.94;5068570;28;20190;-73
2021/04/29 10:24:09;;;;;;;8.17;7.47;;;;;;;12.89;90.70;99076.75;5070226;28;20221;-72
2021/04/29 10:26:34;;;;;;;7.13;6.53;;;;;;;13.04;90.27;99067.66;5071535;28;20201;-73
2021/04/29 10:29:05;;;;;;;6.93;6.33;;;;;;;13.21;88.91;99060.19;5071952;28;20186;-73
2021/04/29 10:31:33;;;;;;;6.50;5.90;;;;;;;13.25;85.24;99058.28;5069358;28;20202;-73
2021/04/29 10:34:16;;;;;;;6.87;6.27;;;;;;;13.06;84.98;99057.13;5073004;28;20669;-73
2021/04/29 10:36:46;;;;;;;6.23;5.63;;;;;;;12.92;84.96;99054.09;5071424;28;20540;-73
2021/04/29 10:39:15;;;;;;;6.10;5.60;;;;;;;12.86;84.67;99052.78;5071978;28;20167;-74
2021/04/29 10:41:42;;;;;;;5.70;5.27;;;;;;;13.07;86.13;99053.22;5068817;28;20622;-74
2021/04/29 10:44:19;;;;;;;3.27;2.97;;;;;;;13.02;82.97;99048.03;5072331;28;20183;-74
2021/04/29 10:46:48;;;;;;;5.40;3.73;;;;;;;12.81;80.03;99053.09;5072646;28;20209;-74
2021/04/29 10:49:15;;;;;;;3.03;2.57;;;;;;;12.80;81.32;99046.00;5070011;28;20556;-74
2021/04/29 10:51:46;;;;;;;6.17;5.67;;;;;;;12.70;77.97;99047.38;5071299;28;20615;-74
2021/04/29 10:54:20;;;;;;;7.10;6.40;;;;;;;12.72;78.79;99050.53;5071146;28;20274;-75
2021/04/29 10:57:06;;;;;;;7.07;6.47;;;;;;;13.05;80.44;99046.53;5070752;28;20162;-74
2021/04/29 10:59:48;;;;;;;7.23;6.63;;;;;;;13.07;79.10;99039.53;5072225;28;20643;-75
2021/04/29 11:02:36;;;;;;;7.87;7.17;;;;;;;13.34;81.07;99023.19;5072114;28;20255;-74
2021/04/29 11:05:04;;;;;;;6.70;6.27;;;;;;;13.69;76.89;99023.81;5072304;28;20166;-74
2021/04/29 11:07:36;;;;;;;7.10;3.70;;;;;;;13.84;72.30;99019.34;5071467;28;20182;-75
2021/04/29 11:10:10;;;;;;;6.10;5.70;;;;;;;13.83;73.42;99026.00;5072085;28;20254;-74
2021/04/29 11:12:50;;;;;;;5.00;4.50;;;;;;;13.91;72.21;99010.44;5072031;28;20166;-74
2021/04/29 11:15:31;;;;;;;3.57;3.33;;;;;;;13.86;71.55;99006.03;5072031;28;20171;-74
2021/04/29 11:18:04;;;;;;;5.33;4.83;;;;;;;13.74;70.66;99008.97;5070124;28;20182;-75
2021/04/29 11:20:47;;;;;;;5.27;4.87;;;;;;;13.75;72.18;99015.28;5070555;28;20185;-75
2021/04/29 11:23:15;;;;;;;5.17;4.77;;;;;;;13.96;69.31;99008.16;5055802;28;20194;-75
2021/04/29 11:25:41;;;;;;;5.47;4.47;;;;;;;14.39;71.67;99000.53;5071765;28;20193;-75
2021/04/29 11:28:07;;;;;;;4.63;4.27;;;;;;;14.59;68.14;99002.00;5069670;28;20205;-75
2021/04/29 11:30:33;;;;;;;5.13;4.73;;;;;;;14.66;67.02;99001.31;5057752;28;20171;-75